sensor_id;sensor_type;location;lat;lon;timestamp;P1;durP1;ratioP1;P2;durP2;ratioP2
3207;SDS011;1616;52.394;9.756;2022-09-29T00:01:30;9.00;;;6.27;;
3207;SDS011;1616;52.394;9.756;2022-09-29T00:03:56;7.07;;;6.57;;
3207;SDS011;1616;52.394;9.756;2022-09-29T00:06:21;7.73;;;6.97;;
3207;SDS011;1616;52.394;9.756;2022-09-29T00:08:47;6.93;;;6.33;;
3207;SDS011;1616;52.394;9.756;2022-09-29T00:11:15;7.77;;;6.97;;
3207;SDS011;1616;52.394;9.756;2022-09-29T00:13:43;9.87;;;8.03;;
3207;SDS011;1616;52.394;9.756;2022-09-29T00:16:09;8.53;;;7.70;;
3207;SDS011;1616;52.394;9.756;2022-09-29T00:18:36;8.03;;;6.60;;
3207;SDS011;1616;52.394;9.756;2022-09-29T00:21:03;7.70;;;7.20;;
3207;SDS011;1616;52.394;9.756;2022-09-29T00:23:29;7.40;;;6.70;;
3207;SDS011;1616;52.394;9.756;2022-09-29T00:28:30;8.67;;;6.60;;
3207;SDS011;1616;52.394;9.756;2022-09-29T00:30:59;8.83;;;6.30;;
3207;SDS011;1616;52.394;9.756;2022-09-29T00:33:33;9.73;;;8.70;;
3207;SDS011;1616;52.394;9.756;2022-09-29T00:36:01;10.03;;;7.53;;
3207;SDS011;1616;52.394;9.756;2022-09-29T00:38:29;9.27;;;8.20;;
3207;SDS011;1616;52.394;9.756;2022-09-29T00:40:56;8.10;;;7.40;;
3207;SDS011;1616;52.394;9.756;2022-09-29T00:46:38;7.93;;;7.20;;
3207;SDS011;1616;52.394;9.756;2022-09-29T00:51:54;8.33;;;6.80;;
3207;SDS011;1616;52.394;9.756;2022-09-29T00:54:44;9.20;;;7.83;;
3207;SDS011;1616;52.394;9.756;2022-09-29T00:57:19;10.87;;;8.20;;
3207;SDS011;1616;52.394;9.756;2022-09-29T01:02:27;10.83;;;8.00;;
3207;SDS011;1616;52.394;9.756;2022-09-29T01:04:55;8.17;;;7.47;;
3207;SDS011;1616;52.394;9.756;2022-09-29T01:07:23;8.60;;;7.80;;
3207;SDS011;1616;52.394;9.756;2022-09-29T01:09:51;13.23;;;7.60;;
3207;SDS011;1616;52.394;9.756;2022-09-29T01:12:20;7.03;;;6.50;;
3207;SDS011;1616;52.394;9.756;2022-09-29T01:14:46;10.80;;;8.70;;
3207;SDS011;1616;52.394;9.756;2022-09-29T01:17:13;9.53;;;7.40;;
3207;SDS011;1616;52.394;9.756;2022-09-29T01:26:10;9.80;;;8.57;;
3207;SDS011;1616;52.394;9.756;2022-09-29T01:29:02;10.20;;;7.63;;
3207;SDS011;1616;52.394;9.756;2022-09-29T01:31:37;9.83;;;8.17;;
3207;SDS011;1616;52.394;9.756;2022-09-29T01:34:23;13.90;;;9.43;;
3207;SDS011;1616;52.394;9.756;2022-09-29T01:39:53;8.43;;;7.43;;
3207;SDS011;1616;52.394;9.756;2022-09-29T01:45:32;11.40;;;7.63;;
3207;SDS011;1616;52.394;9.756;2022-09-29T01:48:08;8.93;;;8.03;;
3207;SDS011;1616;52.394;9.756;2022-09-29T01:50:44;14.60;;;8.47;;
3207;SDS011;1616;52.394;9.756;2022-09-29T01:53:15;9.93;;;8.90;;
3207;SDS011;1616;52.394;9.756;2022-09-29T01:55:46;11.17;;;8.83;;
3207;SDS011;1616;52.394;9.756;2022-09-29T01:58:17;11.80;;;8.97;;
3207;SDS011;1616;52.394;9.756;2022-09-29T02:01:10;14.83;;;9.93;;
3207;SDS011;1616;52.394;9.756;2022-09-29T02:03:43;12.90;;;9.63;;
3207;SDS011;1616;52.394;9.756;2022-09-29T02:06:25;13.23;;;9.47;;
3207;SDS011;1616;52.394;9.756;2022-09-29T02:09:01;13.97;;;9.37;;
3207;SDS011;1616;52.394;9.756;2022-09-29T02:11:30;10.00;;;7.90;;
3207;SDS011;1616;52.394;9.756;2022-09-29T02:16:53;10.03;;;8.87;;
3207;SDS011;1616;52.394;9.756;2022-09-29T02:19:28;11.27;;;9.00;;
3207;SDS011;1616;52.394;9.756;2022-09-29T02:21:58;15.30;;;10.80;;
3207;SDS011;1616;52.394;9.756;2022-09-29T02:24:25;17.10;;;11.23;;
3207;SDS011;1616;52.394;9.756;2022-09-29T02:26:51;18.60;;;10.93;;
3207;SDS011;1616;52.394;9.756;2022-09-29T02:29:17;17.93;;;11.60;;
3207;SDS011;1616;52.394;9.756;2022-09-29T02:31:44;17.87;;;10.80;;
3207;SDS011;1616;52.394;9.756;2022-09-29T02:34:11;18.10;;;11.03;;
3207;SDS011;1616;52.394;9.756;2022-09-29T02:56:24;24.30;;;12.07;;
3207;SDS011;1616;52.394;9.756;2022-09-29T02:59:34;21.87;;;12.10;;
3207;SDS011;1616;52.394;9.756;2022-09-29T03:02:01;20.70;;;12.07;;
3207;SDS011;1616;52.394;9.756;2022-09-29T03:04:27;18.50;;;12.63;;
3207;SDS011;1616;52.394;9.756;2022-09-29T03:06:53;27.60;;;12.90;;
3207;SDS011;1616;52.394;9.756;2022-09-29T03:09:19;25.30;;;12.87;;
3207;SDS011;1616;52.394;9.756;2022-09-29T03:11:45;20.70;;;12.17;;
3207;SDS011;1616;52.394;9.756;2022-09-29T03:14:11;20.47;;;13.20;;
3207;SDS011;1616;52.394;9.756;2022-09-29T03:16:37;24.53;;;13.47;;
3207;SDS011;1616;52.394;9.756;2022-09-29T03:19:03;26.70;;;14.23;;
3207;SDS011;1616;52.394;9.756;2022-09-29T03:21:32;25.63;;;14.23;;
3207;SDS011;1616;52.394;9.756;2022-09-29T03:23:58;24.43;;;13.40;;
3207;SDS011;1616;52.394;9.756;2022-09-29T03:26:24;21.23;;;13.27;;
3207;SDS011;1616;52.394;9.756;2022-09-29T03:28:50;24.37;;;14.97;;
3207;SDS011;1616;52.394;9.756;2022-09-29T03:31:16;27.53;;;14.90;;
3207;SDS011;1616;52.394;9.756;2022-09-29T03:33:42;27.00;;;15.30;;
3207;SDS011;1616;52.394;9.756;2022-09-29T03:36:08;29.37;;;14.57;;
3207;SDS011;1616;52.394;9.756;2022-09-29T03:38:36;29.50;;;15.97;;
3207;SDS011;1616;52.394;9.756;2022-09-29T03:41:02;35.33;;;17.10;;
3207;SDS011;1616;52.394;9.756;2022-09-29T03:43:29;34.90;;;16.93;;
3207;SDS011;1616;52.394;9.756;2022-09-29T03:45:55;33.10;;;16.80;;
3207;SDS011;1616;52.394;9.756;2022-09-29T03:48:21;38.97;;;17.47;;
3207;SDS011;1616;52.394;9.756;2022-09-29T03:50:48;39.93;;;15.97;;
3207;SDS011;1616;52.394;9.756;2022-09-29T03:53:15;36.00;;;16.00;;
3207;SDS011;1616;52.394;9.756;2022-09-29T03:55:45;39.43;;;16.80;;
3207;SDS011;1616;52.394;9.756;2022-09-29T03:58:12;41.93;;;18.30;;
3207;SDS011;1616;52.394;9.756;2022-09-29T04:00:38;38.70;;;17.37;;
3207;SDS011;1616;52.394;9.756;2022-09-29T04:03:04;23.07;;;11.17;;
3207;SDS011;1616;52.394;9.756;2022-09-29T04:05:31;33.13;;;17.53;;
3207;SDS011;1616;52.394;9.756;2022-09-29T04:08:03;31.53;;;15.77;;
3207;SDS011;1616;52.394;9.756;2022-09-29T04:10:29;27.83;;;15.77;;
3207;SDS011;1616;52.394;9.756;2022-09-29T04:12:57;37.73;;;19.10;;
3207;SDS011;1616;52.394;9.756;2022-09-29T04:15:23;24.90;;;14.40;;
3207;SDS011;1616;52.394;9.756;2022-09-29T04:17:49;25.20;;;14.43;;
3207;SDS011;1616;52.394;9.756;2022-09-29T04:20:15;32.93;;;16.07;;
3207;SDS011;1616;52.394;9.756;2022-09-29T04:22:41;22.53;;;12.03;;
3207;SDS011;1616;52.394;9.756;2022-09-29T04:25:06;23.63;;;16.60;;
3207;SDS011;1616;52.394;9.756;2022-09-29T04:27:32;22.10;;;14.77;;
3207;SDS011;1616;52.394;9.756;2022-09-29T04:29:58;33.60;;;17.40;;
3207;SDS011;1616;52.394;9.756;2022-09-29T04:32:24;28.37;;;16.07;;
3207;SDS011;1616;52.394;9.756;2022-09-29T04:34:50;22.33;;;13.73;;
3207;SDS011;1616;52.394;9.756;2022-09-29T04:37:16;21.20;;;13.43;;
3207;SDS011;1616;52.394;9.756;2022-09-29T04:39:41;24.10;;;13.87;;
3207;SDS011;1616;52.394;9.756;2022-09-29T04:42:07;18.73;;;14.50;;
3207;SDS011;1616;52.394;9.756;2022-09-29T04:44:33;25.57;;;15.63;;
3207;SDS011;1616;52.394;9.756;2022-09-29T04:46:59;25.67;;;16.93;;
3207;SDS011;1616;52.394;9.756;2022-09-29T04:49:24;22.20;;;14.80;;
3207;SDS011;1616;52.394;9.756;2022-09-29T04:51:50;26.17;;;15.70;;
3207;SDS011;1616;52.394;9.756;2022-09-29T04:54:16;27.10;;;15.90;;
3207;SDS011;1616;52.394;9.756;2022-09-29T04:56:42;28.87;;;16.20;;
3207;SDS011;1616;52.394;9.756;2022-09-29T04:59:08;30.23;;;16.07;;
3207;SDS011;1616;52.394;9.756;2022-09-29T05:01:34;28.43;;;16.40;;
3207;SDS011;1616;52.394;9.756;2022-09-29T05:04:00;37.03;;;17.63;;
3207;SDS011;1616;52.394;9.756;2022-09-29T05:06:26;23.73;;;15.17;;
3207;SDS011;1616;52.394;9.756;2022-09-29T05:08:52;32.90;;;17.10;;
3207;SDS011;1616;52.394;9.756;2022-09-29T05:11:18;34.67;;;17.73;;
3207;SDS011;1616;52.394;9.756;2022-09-29T05:13:46;36.50;;;18.37;;
3207;SDS011;1616;52.394;9.756;2022-09-29T05:16:14;32.97;;;17.47;;
3207;SDS011;1616;52.394;9.756;2022-09-29T05:18:40;32.33;;;18.53;;
3207;SDS011;1616;52.394;9.756;2022-09-29T05:21:06;35.80;;;18.17;;
3207;SDS011;1616;52.394;9.756;2022-09-29T05:23:32;40.00;;;19.27;;
3207;SDS011;1616;52.394;9.756;2022-09-29T05:26:02;46.57;;;20.97;;
3207;SDS011;1616;52.394;9.756;2022-09-29T05:28:29;44.47;;;21.50;;
3207;SDS011;1616;52.394;9.756;2022-09-29T05:30:59;46.20;;;19.77;;
3207;SDS011;1616;52.394;9.756;2022-09-29T05:33:25;41.07;;;18.87;;
3207;SDS011;1616;52.394;9.756;2022-09-29T05:35:51;43.77;;;21.10;;
3207;SDS011;1616;52.394;9.756;2022-09-29T05:38:16;42.20;;;20.50;;
3207;SDS011;1616;52.394;9.756;2022-09-29T05:40:42;47.07;;;21.20;;
3207;SDS011;1616;52.394;9.756;2022-09-29T05:43:08;43.00;;;20.70;;
3207;SDS011;1616;52.394;9.756;2022-09-29T05:45:34;50.70;;;21.63;;
3207;SDS011;1616;52.394;9.756;2022-09-29T05:48:00;46.10;;;22.00;;
3207;SDS011;1616;52.394;9.756;2022-09-29T05:50:25;47.27;;;21.17;;
3207;SDS011;1616;52.394;9.756;2022-09-29T05:52:51;40.30;;;21.00;;
3207;SDS011;1616;52.394;9.756;2022-09-29T05:55:17;47.60;;;22.23;;
3207;SDS011;1616;52.394;9.756;2022-09-29T05:57:47;42.33;;;21.57;;
3207;SDS011;1616;52.394;9.756;2022-09-29T06:00:13;46.93;;;22.03;;
3207;SDS011;1616;52.394;9.756;2022-09-29T06:02:39;41.53;;;21.30;;
3207;SDS011;1616;52.394;9.756;2022-09-29T06:05:05;43.43;;;21.90;;
3207;SDS011;1616;52.394;9.756;2022-09-29T06:07:30;37.90;;;21.03;;
3207;SDS011;1616;52.394;9.756;2022-09-29T06:09:56;39.87;;;20.37;;
3207;SDS011;1616;52.394;9.756;2022-09-29T06:12:22;30.73;;;18.80;;
3207;SDS011;1616;52.394;9.756;2022-09-29T06:14:48;23.10;;;16.90;;
3207;SDS011;1616;52.394;9.756;2022-09-29T06:17:13;27.60;;;17.83;;
3207;SDS011;1616;52.394;9.756;2022-09-29T06:19:39;23.47;;;16.20;;
3207;SDS011;1616;52.394;9.756;2022-09-29T06:22:05;22.50;;;16.03;;
3207;SDS011;1616;52.394;9.756;2022-09-29T06:24:30;17.57;;;14.87;;
3207;SDS011;1616;52.394;9.756;2022-09-29T06:26:56;17.73;;;14.97;;
3207;SDS011;1616;52.394;9.756;2022-09-29T06:29:22;17.87;;;15.40;;
3207;SDS011;1616;52.394;9.756;2022-09-29T06:31:47;19.33;;;15.33;;
3207;SDS011;1616;52.394;9.756;2022-09-29T06:34:13;18.57;;;16.20;;
3207;SDS011;1616;52.394;9.756;2022-09-29T06:36:40;18.43;;;15.13;;
3207;SDS011;1616;52.394;9.756;2022-09-29T06:39:25;18.43;;;15.67;;
3207;SDS011;1616;52.394;9.756;2022-09-29T06:41:51;15.67;;;14.07;;
3207;SDS011;1616;52.394;9.756;2022-09-29T06:44:19;18.37;;;15.07;;
3207;SDS011;1616;52.394;9.756;2022-09-29T06:46:48;20.97;;;16.57;;
3207;SDS011;1616;52.394;9.756;2022-09-29T06:49:15;21.93;;;14.80;;
3207;SDS011;1616;52.394;9.756;2022-09-29T06:51:42;15.70;;;14.43;;
3207;SDS011;1616;52.394;9.756;2022-09-29T06:54:09;16.97;;;15.17;;
3207;SDS011;1616;52.394;9.756;2022-09-29T06:56:35;16.57;;;14.67;;
3207;SDS011;1616;52.394;9.756;2022-09-29T06:59:01;16.27;;;14.70;;
3207;SDS011;1616;52.394;9.756;2022-09-29T07:01:27;18.67;;;14.80;;
3207;SDS011;1616;52.394;9.756;2022-09-29T07:03:52;16.20;;;14.47;;
3207;SDS011;1616;52.394;9.756;2022-09-29T07:06:18;16.90;;;15.20;;
3207;SDS011;1616;52.394;9.756;2022-09-29T07:08:44;16.40;;;14.80;;
3207;SDS011;1616;52.394;9.756;2022-09-29T07:11:09;16.13;;;14.50;;
3207;SDS011;1616;52.394;9.756;2022-09-29T07:13:36;15.73;;;14.43;;
3207;SDS011;1616;52.394;9.756;2022-09-29T07:18:35;16.33;;;15.03;;
3207;SDS011;1616;52.394;9.756;2022-09-29T07:21:03;15.07;;;13.40;;
3207;SDS011;1616;52.394;9.756;2022-09-29T07:23:29;15.07;;;13.87;;
3207;SDS011;1616;52.394;9.756;2022-09-29T07:25:55;13.97;;;12.77;;
3207;SDS011;1616;52.394;9.756;2022-09-29T07:28:21;15.03;;;13.83;;
3207;SDS011;1616;52.394;9.756;2022-09-29T07:30:56;15.73;;;14.43;;
3207;SDS011;1616;52.394;9.756;2022-09-29T07:33:23;16.50;;;14.77;;
3207;SDS011;1616;52.394;9.756;2022-09-29T07:35:51;15.93;;;14.73;;
3207;SDS011;1616;52.394;9.756;2022-09-29T07:38:17;16.37;;;14.80;;
3207;SDS011;1616;52.394;9.756;2022-09-29T07:40:43;15.30;;;14.00;;
3207;SDS011;1616;52.394;9.756;2022-09-29T07:43:09;15.67;;;14.30;;
3207;SDS011;1616;52.394;9.756;2022-09-29T07:45:34;15.30;;;14.20;;
3207;SDS011;1616;52.394;9.756;2022-09-29T07:48:00;14.57;;;13.57;;
3207;SDS011;1616;52.394;9.756;2022-09-29T07:50:26;14.90;;;13.53;;
3207;SDS011;1616;52.394;9.756;2022-09-29T07:52:52;13.40;;;12.37;;
3207;SDS011;1616;52.394;9.756;2022-09-29T07:55:17;14.80;;;13.80;;
3207;SDS011;1616;52.394;9.756;2022-09-29T07:57:48;15.43;;;14.10;;
3207;SDS011;1616;52.394;9.756;2022-09-29T08:00:14;15.03;;;13.77;;
3207;SDS011;1616;52.394;9.756;2022-09-29T08:02:41;15.40;;;14.00;;
3207;SDS011;1616;52.394;9.756;2022-09-29T08:05:08;15.10;;;13.80;;
3207;SDS011;1616;52.394;9.756;2022-09-29T08:07:34;16.80;;;15.17;;
3207;SDS011;1616;52.394;9.756;2022-09-29T08:09:59;15.17;;;13.97;;
3207;SDS011;1616;52.394;9.756;2022-09-29T08:12:25;15.00;;;13.87;;
3207;SDS011;1616;52.394;9.756;2022-09-29T08:14:51;16.33;;;14.80;;
3207;SDS011;1616;52.394;9.756;2022-09-29T08:17:17;16.70;;;15.30;;
3207;SDS011;1616;52.394;9.756;2022-09-29T08:19:43;16.90;;;13.70;;
3207;SDS011;1616;52.394;9.756;2022-09-29T08:22:09;16.20;;;14.70;;
3207;SDS011;1616;52.394;9.756;2022-09-29T08:24:34;16.13;;;14.80;;
3207;SDS011;1616;52.394;9.756;2022-09-29T08:27:01;14.60;;;13.40;;
3207;SDS011;1616;52.394;9.756;2022-09-29T08:29:31;15.00;;;13.77;;
3207;SDS011;1616;52.394;9.756;2022-09-29T08:31:57;13.63;;;12.73;;
3207;SDS011;1616;52.394;9.756;2022-09-29T08:34:23;17.47;;;15.00;;
3207;SDS011;1616;52.394;9.756;2022-09-29T08:36:49;13.60;;;12.67;;
3207;SDS011;1616;52.394;9.756;2022-09-29T08:39:16;13.10;;;12.10;;
3207;SDS011;1616;52.394;9.756;2022-09-29T08:41:55;14.63;;;13.37;;
3207;SDS011;1616;52.394;9.756;2022-09-29T08:47:28;13.60;;;12.30;;
3207;SDS011;1616;52.394;9.756;2022-09-29T08:50:50;12.57;;;11.43;;
3207;SDS011;1616;52.394;9.756;2022-09-29T08:52:52;12.30;;;11.27;;
3207;SDS011;1616;52.394;9.756;2022-09-29T08:55:23;12.30;;;11.50;;
3207;SDS011;1616;52.394;9.756;2022-09-29T08:57:58;12.17;;;11.23;;
3207;SDS011;1616;52.394;9.756;2022-09-29T09:00:38;12.00;;;10.87;;
3207;SDS011;1616;52.394;9.756;2022-09-29T09:03:11;9.10;;;8.70;;
3207;SDS011;1616;52.394;9.756;2022-09-29T09:20:26;9.17;;;8.53;;
3207;SDS011;1616;52.394;9.756;2022-09-29T09:23:05;8.23;;;7.93;;
3207;SDS011;1616;52.394;9.756;2022-09-29T09:25:52;8.90;;;8.47;;
3207;SDS011;1616;52.394;9.756;2022-09-29T09:28:21;8.63;;;8.20;;
3207;SDS011;1616;52.394;9.756;2022-09-29T09:31:03;7.20;;;6.33;;
3207;SDS011;1616;52.394;9.756;2022-09-29T09:33:40;6.00;;;5.70;;
3207;SDS011;1616;52.394;9.756;2022-09-29T09:36:18;5.10;;;4.90;;
3207;SDS011;1616;52.394;9.756;2022-09-29T09:41:39;5.13;;;4.93;;
3207;SDS011;1616;52.394;9.756;2022-09-29T09:46:49;5.60;;;5.30;;
3207;SDS011;1616;52.394;9.756;2022-09-29T09:49:25;6.20;;;5.80;;
3207;SDS011;1616;52.394;9.756;2022-09-29T09:52:13;5.53;;;5.33;;
3207;SDS011;1616;52.394;9.756;2022-09-29T09:54:48;4.13;;;3.93;;
3207;SDS011;1616;52.394;9.756;2022-09-29T10:00:12;5.67;;;5.13;;
3207;SDS011;1616;52.394;9.756;2022-09-29T10:02:50;5.10;;;4.90;;
3207;SDS011;1616;52.394;9.756;2022-09-29T10:05:21;4.87;;;4.67;;
3207;SDS011;1616;52.394;9.756;2022-09-29T10:08:06;5.00;;;4.80;;
3207;SDS011;1616;52.394;9.756;2022-09-29T10:10:41;5.37;;;5.17;;
3207;SDS011;1616;52.394;9.756;2022-09-29T10:13:13;4.63;;;4.33;;
3207;SDS011;1616;52.394;9.756;2022-09-29T10:20:48;5.17;;;4.60;;
3207;SDS011;1616;52.394;9.756;2022-09-29T10:26:05;3.10;;;2.90;;
3207;SDS011;1616;52.394;9.756;2022-09-29T10:28:39;4.27;;;3.87;;
3207;SDS011;1616;52.394;9.756;2022-09-29T10:31:18;4.10;;;3.80;;
3207;SDS011;1616;52.394;9.756;2022-09-29T10:33:54;4.17;;;3.97;;
3207;SDS011;1616;52.394;9.756;2022-09-29T10:36:23;3.47;;;3.27;;
3207;SDS011;1616;52.394;9.756;2022-09-29T10:38:50;5.63;;;3.77;;
3207;SDS011;1616;52.394;9.756;2022-09-29T10:41:17;2.80;;;2.70;;
3207;SDS011;1616;52.394;9.756;2022-09-29T10:43:47;2.40;;;2.30;;
3207;SDS011;1616;52.394;9.756;2022-09-29T10:49:13;4.57;;;3.80;;
3207;SDS011;1616;52.394;9.756;2022-09-29T10:51:40;3.30;;;3.10;;
3207;SDS011;1616;52.394;9.756;2022-09-29T10:54:17;5.93;;;3.63;;
3207;SDS011;1616;52.394;9.756;2022-09-29T10:56:47;2.73;;;2.50;;
3207;SDS011;1616;52.394;9.756;2022-09-29T10:59:13;2.50;;;2.40;;
3207;SDS011;1616;52.394;9.756;2022-09-29T11:01:45;2.90;;;2.70;;
3207;SDS011;1616;52.394;9.756;2022-09-29T11:04:21;3.13;;;2.93;;
3207;SDS011;1616;52.394;9.756;2022-09-29T11:06:50;3.00;;;2.90;;
3207;SDS011;1616;52.394;9.756;2022-09-29T11:14:56;3.20;;;3.00;;
3207;SDS011;1616;52.394;9.756;2022-09-29T11:17:00;2.47;;;2.37;;
3207;SDS011;1616;52.394;9.756;2022-09-29T11:19:42;2.73;;;2.53;;
3207;SDS011;1616;52.394;9.756;2022-09-29T11:30:44;3.83;;;3.60;;
3207;SDS011;1616;52.394;9.756;2022-09-29T11:33:42;3.30;;;3.00;;
3207;SDS011;1616;52.394;9.756;2022-09-29T11:44:59;1.70;;;1.60;;
3207;SDS011;1616;52.394;9.756;2022-09-29T11:49:56;3.17;;;2.97;;
3207;SDS011;1616;52.394;9.756;2022-09-29T12:00:27;3.20;;;2.83;;
3207;SDS011;1616;52.394;9.756;2022-09-29T12:03:30;4.80;;;3.40;;
3207;SDS011;1616;52.394;9.756;2022-09-29T12:06:26;4.13;;;3.27;;
3207;SDS011;1616;52.394;9.756;2022-09-29T12:14:03;3.47;;;3.27;;
3207;SDS011;1616;52.394;9.756;2022-09-29T12:16:52;2.10;;;2.00;;
3207;SDS011;1616;52.394;9.756;2022-09-29T12:19:23;3.57;;;2.30;;
3207;SDS011;1616;52.394;9.756;2022-09-29T12:21:53;3.40;;;2.67;;
3207;SDS011;1616;52.394;9.756;2022-09-29T12:26:58;2.67;;;2.47;;
3207;SDS011;1616;52.394;9.756;2022-09-29T12:29:36;2.67;;;2.47;;
3207;SDS011;1616;52.394;9.756;2022-09-29T12:32:48;2.97;;;2.77;;
3207;SDS011;1616;52.394;9.756;2022-09-29T12:35:33;3.80;;;3.47;;
3207;SDS011;1616;52.394;9.756;2022-09-29T12:43:31;2.10;;;1.83;;
3207;SDS011;1616;52.394;9.756;2022-09-29T12:46:05;3.67;;;2.83;;
3207;SDS011;1616;52.394;9.756;2022-09-29T12:56:34;1.90;;;1.80;;
3207;SDS011;1616;52.394;9.756;2022-09-29T12:59:09;1.50;;;1.40;;
3207;SDS011;1616;52.394;9.756;2022-09-29T13:01:48;1.53;;;1.43;;
3207;SDS011;1616;52.394;9.756;2022-09-29T13:12:29;1.73;;;1.63;;
3207;SDS011;1616;52.394;9.756;2022-09-29T13:31:12;1.60;;;1.40;;
3207;SDS011;1616;52.394;9.756;2022-09-29T13:33:51;1.97;;;1.30;;
3207;SDS011;1616;52.394;9.756;2022-09-29T13:38:53;1.40;;;1.30;;
3207;SDS011;1616;52.394;9.756;2022-09-29T13:46:37;2.27;;;1.40;;
3207;SDS011;1616;52.394;9.756;2022-09-29T13:51:45;1.43;;;1.33;;
3207;SDS011;1616;52.394;9.756;2022-09-29T13:54:24;2.60;;;1.40;;
3207;SDS011;1616;52.394;9.756;2022-09-29T13:57:26;1.40;;;1.20;;
3207;SDS011;1616;52.394;9.756;2022-09-29T14:08:05;1.50;;;1.40;;
3207;SDS011;1616;52.394;9.756;2022-09-29T14:10:42;1.70;;;1.60;;
3207;SDS011;1616;52.394;9.756;2022-09-29T14:13:19;2.30;;;1.40;;
3207;SDS011;1616;52.394;9.756;2022-09-29T14:16:08;1.30;;;1.20;;
3207;SDS011;1616;52.394;9.756;2022-09-29T14:18:44;1.60;;;1.50;;
3207;SDS011;1616;52.394;9.756;2022-09-29T14:21:14;2.43;;;1.10;;
3207;SDS011;1616;52.394;9.756;2022-09-29T14:25:20;1.97;;;1.10;;
3207;SDS011;1616;52.394;9.756;2022-09-29T14:29:49;1.30;;;1.20;;
3207;SDS011;1616;52.394;9.756;2022-09-29T14:32:22;27.50;;;1.83;;
3207;SDS011;1616;52.394;9.756;2022-09-29T14:34:56;2.30;;;1.43;;
3207;SDS011;1616;52.394;9.756;2022-09-29T14:37:25;3.77;;;1.40;;
3207;SDS011;1616;52.394;9.756;2022-09-29T14:39:51;4.30;;;1.70;;
3207;SDS011;1616;52.394;9.756;2022-09-29T14:42:38;3.97;;;1.67;;
3207;SDS011;1616;52.394;9.756;2022-09-29T14:45:04;1.47;;;1.37;;
3207;SDS011;1616;52.394;9.756;2022-09-29T14:48:04;1.83;;;1.30;;
3207;SDS011;1616;52.394;9.756;2022-09-29T14:51:00;1.57;;;1.20;;
3207;SDS011;1616;52.394;9.756;2022-09-29T14:54:42;1.60;;;1.07;;
3207;SDS011;1616;52.394;9.756;2022-09-29T15:00:15;3.20;;;1.30;;
3207;SDS011;1616;52.394;9.756;2022-09-29T15:02:47;1.53;;;1.43;;
3207;SDS011;1616;52.394;9.756;2022-09-29T15:05:26;1.30;;;1.00;;
3207;SDS011;1616;52.394;9.756;2022-09-29T15:07:55;1.10;;;1.00;;
3207;SDS011;1616;52.394;9.756;2022-09-29T15:10:26;1.20;;;1.10;;
3207;SDS011;1616;52.394;9.756;2022-09-29T15:16:01;2.03;;;1.20;;
3207;SDS011;1616;52.394;9.756;2022-09-29T15:26:34;1.10;;;1.00;;
3207;SDS011;1616;52.394;9.756;2022-09-29T15:29:03;1.30;;;0.93;;
3207;SDS011;1616;52.394;9.756;2022-09-29T15:31:31;0.90;;;0.80;;
3207;SDS011;1616;52.394;9.756;2022-09-29T15:34:02;1.00;;;0.80;;
3207;SDS011;1616;52.394;9.756;2022-09-29T15:36:32;1.30;;;0.80;;
3207;SDS011;1616;52.394;9.756;2022-09-29T15:39:05;0.97;;;0.80;;
3207;SDS011;1616;52.394;9.756;2022-09-29T15:41:32;1.33;;;0.70;;
3207;SDS011;1616;52.394;9.756;2022-09-29T15:44:17;0.90;;;0.70;;
3207;SDS011;1616;52.394;9.756;2022-09-29T15:46:48;1.10;;;0.77;;
3207;SDS011;1616;52.394;9.756;2022-09-29T15:49:21;3.47;;;0.90;;
3207;SDS011;1616;52.394;9.756;2022-09-29T15:51:54;2.50;;;1.00;;
3207;SDS011;1616;52.394;9.756;2022-09-29T15:54:25;1.00;;;0.70;;
3207;SDS011;1616;52.394;9.756;2022-09-29T15:56:53;1.17;;;0.80;;
3207;SDS011;1616;52.394;9.756;2022-09-29T15:59:39;2.73;;;1.07;;
3207;SDS011;1616;52.394;9.756;2022-09-29T16:02:11;1.50;;;0.70;;
3207;SDS011;1616;52.394;9.756;2022-09-29T16:04:42;2.20;;;0.90;;
3207;SDS011;1616;52.394;9.756;2022-09-29T16:07:27;1.77;;;0.90;;
3207;SDS011;1616;52.394;9.756;2022-09-29T16:10:10;1.10;;;1.00;;
3207;SDS011;1616;52.394;9.756;2022-09-29T16:12:44;5.20;;;1.10;;
3207;SDS011;1616;52.394;9.756;2022-09-29T16:18:00;3.87;;;1.73;;
3207;SDS011;1616;52.394;9.756;2022-09-29T16:20:30;7.63;;;1.40;;
3207;SDS011;1616;52.394;9.756;2022-09-29T16:23:05;4.67;;;1.23;;
3207;SDS011;1616;52.394;9.756;2022-09-29T16:25:44;2.13;;;1.20;;
3207;SDS011;1616;52.394;9.756;2022-09-29T16:28:58;4.40;;;1.87;;
3207;SDS011;1616;52.394;9.756;2022-09-29T16:31:05;5.93;;;1.70;;
3207;SDS011;1616;52.394;9.756;2022-09-29T16:33:45;2.33;;;1.40;;
3207;SDS011;1616;52.394;9.756;2022-09-29T16:36:18;8.03;;;1.73;;
3207;SDS011;1616;52.394;9.756;2022-09-29T16:38:47;3.73;;;1.50;;
3207;SDS011;1616;52.394;9.756;2022-09-29T16:49:26;1.60;;;1.40;;
3207;SDS011;1616;52.394;9.756;2022-09-29T16:51:53;5.10;;;1.60;;
3207;SDS011;1616;52.394;9.756;2022-09-29T16:54:22;2.00;;;1.50;;
3207;SDS011;1616;52.394;9.756;2022-09-29T16:57:15;7.23;;;6.73;;
3207;SDS011;1616;52.394;9.756;2022-09-29T16:59:42;3.20;;;2.10;;
3207;SDS011;1616;52.394;9.756;2022-09-29T17:02:09;4.00;;;2.67;;
3207;SDS011;1616;52.394;9.756;2022-09-29T17:04:36;3.40;;;3.10;;
3207;SDS011;1616;52.394;9.756;2022-09-29T17:07:02;5.13;;;4.67;;
3207;SDS011;1616;52.394;9.756;2022-09-29T17:09:28;12.00;;;7.10;;
3207;SDS011;1616;52.394;9.756;2022-09-29T17:11:55;10.17;;;8.23;;
3207;SDS011;1616;52.394;9.756;2022-09-29T17:14:23;5.57;;;4.83;;
3207;SDS011;1616;52.394;9.756;2022-09-29T17:16:49;5.10;;;4.60;;
3207;SDS011;1616;52.394;9.756;2022-09-29T17:19:16;7.80;;;4.13;;
3207;SDS011;1616;52.394;9.756;2022-09-29T17:21:42;4.10;;;3.80;;
3207;SDS011;1616;52.394;9.756;2022-09-29T17:24:08;3.97;;;3.77;;
3207;SDS011;1616;52.394;9.756;2022-09-29T17:26:51;4.30;;;4.00;;
3207;SDS011;1616;52.394;9.756;2022-09-29T17:29:36;4.37;;;4.07;;
3207;SDS011;1616;52.394;9.756;2022-09-29T17:32:05;2.73;;;2.53;;
3207;SDS011;1616;52.394;9.756;2022-09-29T17:34:36;3.63;;;2.53;;
3207;SDS011;1616;52.394;9.756;2022-09-29T17:37:02;4.17;;;2.83;;
3207;SDS011;1616;52.394;9.756;2022-09-29T17:39:28;3.20;;;2.90;;
3207;SDS011;1616;52.394;9.756;2022-09-29T17:41:53;2.77;;;2.33;;
3207;SDS011;1616;52.394;9.756;2022-09-29T17:44:19;2.90;;;2.43;;
3207;SDS011;1616;52.394;9.756;2022-09-29T17:46:45;8.33;;;7.33;;
3207;SDS011;1616;52.394;9.756;2022-09-29T17:49:12;6.33;;;5.80;;
3207;SDS011;1616;52.394;9.756;2022-09-29T17:51:39;5.03;;;4.07;;
3207;SDS011;1616;52.394;9.756;2022-09-29T17:54:04;6.43;;;5.90;;
3207;SDS011;1616;52.394;9.756;2022-09-29T17:56:30;13.97;;;9.10;;
3207;SDS011;1616;52.394;9.756;2022-09-29T17:59:01;26.23;;;14.40;;
3207;SDS011;1616;52.394;9.756;2022-09-29T18:01:29;27.57;;;19.53;;
3207;SDS011;1616;52.394;9.756;2022-09-29T18:03:58;32.33;;;17.80;;
3207;SDS011;1616;52.394;9.756;2022-09-29T18:06:25;21.53;;;16.10;;
3207;SDS011;1616;52.394;9.756;2022-09-29T18:08:52;9.67;;;8.77;;
3207;SDS011;1616;52.394;9.756;2022-09-29T18:11:19;23.33;;;7.00;;
3207;SDS011;1616;52.394;9.756;2022-09-29T18:13:46;6.07;;;5.47;;
3207;SDS011;1616;52.394;9.756;2022-09-29T18:16:14;5.93;;;5.40;;
3207;SDS011;1616;52.394;9.756;2022-09-29T18:18:41;6.70;;;4.70;;
3207;SDS011;1616;52.394;9.756;2022-09-29T18:21:07;13.37;;;10.90;;
3207;SDS011;1616;52.394;9.756;2022-09-29T18:23:34;14.23;;;10.30;;
3207;SDS011;1616;52.394;9.756;2022-09-29T18:26:02;11.03;;;9.87;;
3207;SDS011;1616;52.394;9.756;2022-09-29T18:28:30;15.93;;;11.17;;
3207;SDS011;1616;52.394;9.756;2022-09-29T18:31:03;7.13;;;6.40;;
3207;SDS011;1616;52.394;9.756;2022-09-29T18:33:32;6.73;;;6.13;;
3207;SDS011;1616;52.394;9.756;2022-09-29T18:35:58;7.27;;;6.47;;
3207;SDS011;1616;52.394;9.756;2022-09-29T18:38:26;5.60;;;5.20;;
3207;SDS011;1616;52.394;9.756;2022-09-29T18:40:52;10.03;;;5.57;;
3207;SDS011;1616;52.394;9.756;2022-09-29T18:43:18;13.87;;;12.53;;
3207;SDS011;1616;52.394;9.756;2022-09-29T18:45:45;11.13;;;8.87;;
3207;SDS011;1616;52.394;9.756;2022-09-29T18:48:13;12.43;;;8.23;;
3207;SDS011;1616;52.394;9.756;2022-09-29T18:50:40;23.53;;;19.80;;
3207;SDS011;1616;52.394;9.756;2022-09-29T18:53:09;18.60;;;15.10;;
3207;SDS011;1616;52.394;9.756;2022-09-29T18:55:36;13.43;;;9.47;;